Time;durP1;ratioP1;P1;durP2;ratioP2;P2;SDS_P1;SDS_P2;PMS_P1;PMS_P2;Temp;Humidity;BMP_temperature;BMP_pressure;BME280_temperature;BME280_humidity;BME280_pressure;Samples;Min_cycle;Max_cycle;Signal;HPM_P1;HPM_P2
2022/01/10 00:02:24;;;;;;;17.15;7.45;;;-3.20;36.10;;;-3.77;98.87;98743.00;4979728;28;122661;-71
2022/01/10 00:04:54;;;;;;;16.40;7.65;;;-3.20;36.00;;;-3.77;98.44;98758.91;4980478;28;122863;-72
2022/01/10 00:07:23;;;;;;;14.43;7.95;;;-3.20;36.10;;;-3.84;98.08;98763.53;4978990;28;129901;-73
2022/01/10 00:09:52;;;;;;;16.25;8.50;;;-3.20;35.00;;;-3.72;98.79;98759.00;4998201;28;129508;-73
2022/01/10 00:12:21;;;;;;;18.42;8.77;;;-3.20;35.60;;;-3.73;98.42;98765.34;4979235;28;119890;-72
2022/01/10 00:14:49;;;;;;;16.35;8.02;;;-3.10;35.50;;;-3.85;98.48;98772.53;4980774;28;118243;-72
2022/01/10 00:17:20;;;;;;;17.13;8.10;;;-3.20;35.00;;;-3.93;99.10;98772.91;4979158;28;130412;-72
2022/01/10 00:19:49;;;;;;;17.35;7.90;;;-3.20;34.00;;;-3.77;98.88;98764.22;4981979;28;129444;-72
2022/01/10 00:22:20;;;;;;;13.35;7.85;;;-3.10;35.10;;;-4.07;99.41;98765.19;4989378;28;119664;-73
2022/01/10 00:24:48;;;;;;;16.90;8.57;;;-3.10;33.20;;;-4.02;99.45;98773.28;4975207;28;119610;-72
2022/01/10 00:27:19;;;;;;;13.63;7.10;;;-3.10;33.60;;;-3.87;98.91;98770.13;4977774;28;130646;-72
2022/01/10 00:29:48;;;;;;;13.52;7.68;;;-3.10;33.40;;;-3.85;98.59;98775.19;4973741;28;130375;-73
2022/01/10 00:32:22;;;;;;;16.85;7.72;;;-3.10;33.10;;;-4.00;98.72;98787.09;4979350;28;118703;-73
2022/01/10 00:34:54;;;;;;;15.23;7.22;;;-3.10;31.30;;;-3.97;98.69;98775.22;4979130;28;118625;-73
2022/01/10 00:37:25;;;;;;;14.10;8.48;;;-3.10;30.80;;;-3.82;98.50;98782.66;4977358;28;130011;-73
2022/01/10 00:39:55;;;;;;;13.10;7.47;;;-3.10;31.60;;;-3.89;98.91;98787.31;4980055;28;129920;-73
2022/01/10 00:42:23;;;;;;;15.60;7.57;;;-3.10;30.20;;;-3.82;98.06;98793.28;4981155;28;120042;-72
2022/01/10 00:44:53;;;;;;;13.65;7.15;;;-3.10;30.80;;;-3.85;98.51;98785.78;4998773;28;119677;-72
2022/01/10 00:47:23;;;;;;;15.38;8.07;;;-3.10;30.80;;;-3.72;98.05;98798.00;4980907;28;130194;-73
2022/01/10 00:49:52;;;;;;;13.50;7.05;;;-3.10;30.10;;;-3.72;97.84;98793.50;5014390;28;129834;-72
2022/01/10 00:52:21;;;;;;;16.38;7.50;;;-3.10;29.20;;;-3.79;97.61;98792.81;4979861;28;122653;-72
2022/01/10 00:54:51;;;;;;;13.10;6.60;;;-3.10;28.90;;;-3.93;98.44;98808.16;4978323;28;121274;-72
2022/01/10 00:57:20;;;;;;;14.15;7.13;;;-3.00;28.40;;;-4.03;98.31;98803.47;4976174;28;129401;-72
2022/01/10 00:59:48;;;;;;;15.15;7.75;;;-3.00;27.60;;;-3.90;98.32;98807.69;4979351;28;129810;-71
2022/01/10 01:02:17;;;;;;;15.18;7.00;;;-3.00;28.00;;;-3.97;98.19;98794.56;4994569;28;119112;-72
2022/01/10 01:04:45;;;;;;;13.35;6.13;;;-3.00;27.40;;;-3.97;98.67;98802.53;4979377;28;119463;-72
2022/01/10 01:07:14;;;;;;;14.40;7.28;;;-3.00;27.80;;;-3.85;98.24;98801.69;4994181;28;129669;-72
2022/01/10 01:09:48;;;;;;;19.25;8.00;;;-3.00;28.00;;;-3.85;98.17;98804.34;4978165;28;128742;-71
2022/01/10 01:12:29;;;;;;;14.85;7.38;;;-3.00;28.60;;;-3.77;98.34;98801.34;4971508;28;119833;-72
2022/01/10 01:15:17;;;;;;;17.10;7.85;;;-3.00;29.00;;;-3.78;97.58;98802.38;4974309;28;119615;-71
2022/01/10 01:17:58;;;;;;;;;;;-3.00;28.20;;;-3.93;98.56;98810.00;4995737;28;129691;-71
2022/01/10 01:20:43;;;;;;;14.80;7.20;;;-3.00;28.40;;;-3.89;98.56;98808.53;4980066;28;130029;-71
2022/01/10 01:26:09;;;;;;;14.60;7.47;;;-3.00;29.40;;;-3.84;98.19;98809.41;4967410;28;118147;-71
2022/01/10 01:28:38;;;;;;;22.05;8.10;;;-3.00;28.80;;;-3.80;98.42;98801.81;4981025;28;130137;-72
2022/01/10 01:31:08;;;;;;;15.82;8.25;;;-3.00;28.50;;;-3.84;97.99;98805.97;4980714;28;129669;-70
2022/01/10 01:33:37;;;;;;;14.63;7.63;;;-3.00;28.50;;;-3.81;98.84;98805.50;4980691;28;120942;-72
2022/01/10 01:36:08;;;;;;;16.13;7.45;;;-3.00;28.90;;;-3.66;97.66;98807.63;4979867;28;119739;-70
2022/01/10 01:38:40;;;;;;;16.35;8.60;;;-3.00;29.10;;;-3.75;98.09;98807.22;5013489;28;129642;-72
2022/01/10 01:41:24;;;;;;;14.73;7.10;;;-3.00;29.30;;;-3.81;98.11;98805.50;4990940;28;130054;-71
2022/01/10 01:43:58;;;;;;;16.08;7.65;;;-3.00;28.70;;;-3.81;98.24;98800.19;4978895;28;122189;-71
2022/01/10 01:46:33;;;;;;;19.45;8.73;;;-3.00;28.70;;;-3.77;97.97;98806.66;4999898;28;121748;-73
2022/01/10 01:49:03;;;;;;;14.02;7.47;;;-3.00;29.00;;;-3.60;98.14;98801.38;5000546;28;129820;-72
2022/01/10 01:51:32;;;;;;;15.68;8.05;;;-3.00;29.30;;;-3.67;97.69;98806.03;4983651;28;129481;-72
2022/01/10 01:54:01;;;;;;;16.65;8.13;;;-3.00;29.80;;;-3.70;97.83;98802.00;4984317;28;119364;-72
2022/01/10 01:56:31;;;;;;;20.60;10.13;;;-3.10;30.70;;;-3.85;97.97;98793.75;4998928;28;118965;-72
2022/01/10 01:59:01;;;;;;;18.58;8.43;;;-3.20;32.20;;;-3.88;98.03;98800.34;4999973;28;129534;-72
2022/01/10 02:01:31;;;;;;;18.38;8.70;;;-3.20;33.20;;;-3.89;98.93;98797.91;4996493;28;130048;-72
2022/01/10 02:04:05;;;;;;;16.20;7.88;;;-3.20;33.40;;;-3.97;99.21;98802.53;4984162;28;118859;-72
2022/01/10 02:06:34;;;;;;;17.40;8.60;;;-3.20;33.50;;;-3.99;99.07;98814.41;4997453;28;120541;-72
2022/01/10 02:09:03;;;;;;;19.90;8.50;;;-3.20;33.60;;;-3.89;99.07;98803.22;5009940;28;129857;-72
2022/01/10 02:11:32;;;;;;;17.15;8.20;;;-3.20;34.30;;;-3.99;99.19;98825.81;4981064;28;129842;-72
2022/01/10 02:14:05;;;;;;;19.38;7.95;;;-3.20;34.80;;;-4.02;99.27;98821.00;5000165;28;119159;-72
2022/01/10 02:16:43;;;;;;;18.83;7.93;;;-3.20;34.30;;;-4.01;99.12;98817.28;4984074;28;118509;-72
2022/01/10 02:19:25;;;;;;;16.20;8.23;;;-3.20;33.10;;;-3.83;99.07;98824.28;4999938;28;130470;-72
2022/01/10 02:21:55;;;;;;;14.75;7.47;;;-3.20;33.20;;;-3.83;98.53;98828.81;4982975;28;130011;-72
2022/01/10 02:24:26;;;;;;;17.05;7.80;;;-3.10;32.10;;;-3.94;98.36;98833.09;4975625;28;119064;-72
2022/01/10 02:26:59;;;;;;;17.30;8.20;;;-3.10;30.50;;;-3.90;98.45;98822.81;5001470;28;119266;-72
2022/01/10 02:29:28;;;;;;;15.77;8.70;;;-3.10;30.00;;;-3.79;98.47;98832.56;4998065;28;129665;-72
2022/01/10 02:31:57;;;;;;;16.33;8.05;;;-3.10;30.40;;;-3.75;98.09;98835.59;4983136;28;129255;-72
2022/01/10 02:34:30;;;;;;;16.17;8.10;;;-3.10;29.80;;;-3.70;97.49;98833.81;4980258;28;121951;-72
2022/01/10 02:37:00;;;;;;;18.13;8.65;;;-3.10;29.30;;;-3.82;97.46;98841.00;4997168;28;121819;-72
2022/01/10 02:39:32;;;;;;;15.40;8.13;;;-3.00;28.60;;;-3.75;97.65;98844.34;4981820;28;130211;-72
2022/01/10 02:42:01;;;;;;;15.05;7.85;;;-3.00;28.20;;;-3.72;97.56;98843.88;4995924;28;129675;-72
2022/01/10 02:44:30;;;;;;;16.63;7.85;;;-3.00;28.30;;;-3.82;97.24;98835.69;4983451;28;119210;-73
2022/01/10 02:46:59;;;;;;;17.35;8.13;;;-3.00;26.60;;;-3.77;97.46;98838.47;5013814;28;119523;-72
2022/01/10 02:49:38;;;;;;;14.05;6.93;;;-3.00;26.50;;;-3.83;96.24;98834.91;4999450;28;129566;-72
2022/01/10 02:52:08;;;;;;;16.98;7.40;;;-3.00;23.70;;;-3.88;97.14;98826.03;4983253;28;129888;-72
2022/01/10 02:54:36;;;;;;;14.52;6.53;;;-3.10;24.00;;;-3.90;97.20;98842.16;4998920;27;119160;-72
2022/01/10 02:57:16;;;;;;;12.80;5.60;;;-3.00;23.60;;;-4.18;96.73;98850.84;4967880;28;118654;-72
2022/01/10 02:59:45;;;;;;;10.30;5.10;;;-3.10;19.60;;;-4.21;97.15;98844.13;4981383;28;129614;-71
2022/01/10 03:02:20;;;;;;;10.65;4.93;;;-3.20;19.70;;;-4.17;96.82;98841.84;4999527;28;129372;-72
2022/01/10 03:04:49;;;;;;;11.85;5.95;;;-3.20;20.20;;;-4.17;97.38;98847.16;4999230;28;119451;-72
2022/01/10 03:07:23;;;;;;;11.70;5.22;;;-3.20;21.20;;;-3.97;96.65;98847.59;4982388;28;119500;-72
2022/01/10 03:09:52;;;;;;;11.38;4.88;;;-3.20;21.90;;;-4.07;95.96;98850.00;4982691;28;129686;-72
2022/01/10 03:12:22;;;;;;;12.20;5.72;;;-3.20;19.80;;;-4.04;96.22;98860.16;4980418;28;131260;-71
2022/01/10 03:14:51;;;;;;;11.18;5.78;;;-3.20;20.20;;;-4.11;96.77;98848.88;4976393;28;119038;-72
2022/01/10 03:17:19;;;;;;;12.00;5.55;;;-3.20;20.60;;;-3.98;96.11;98845.97;4975807;28;119327;-72
2022/01/10 03:19:48;;;;;;;12.07;5.05;;;-3.20;22.00;;;-4.01;96.15;98862.34;4999846;28;131365;-72
2022/01/10 03:22:17;;;;;;;12.50;6.28;;;-3.20;21.20;;;-3.99;95.89;98860.28;4981806;28;128585;-72
2022/01/10 03:24:47;;;;;;;11.88;5.80;;;-3.20;21.30;;;-3.91;96.07;98859.13;4975065;28;121536;-72
2022/01/10 03:27:16;;;;;;;12.32;6.07;;;-3.20;21.40;;;-3.85;96.06;98860.03;4996429;28;122278;-72
2022/01/10 03:29:47;;;;;;;13.55;6.55;;;-3.20;21.40;;;-3.87;95.21;98864.75;4975515;28;130240;-72
2022/01/10 03:32:16;;;;;;;14.48;6.82;;;-3.20;21.00;;;-3.88;95.47;98868.44;4980329;28;129992;-72
2022/01/10 03:34:45;;;;;;;13.85;6.25;;;-3.20;20.60;;;-3.94;96.04;98874.66;4999120;28;120750;-72
2022/01/10 03:37:14;;;;;;;14.35;6.15;;;-3.20;21.50;;;-3.92;95.72;98875.25;4993201;28;119229;-72
2022/01/10 03:39:47;;;;;;;13.90;6.30;;;-3.20;21.40;;;-3.67;95.42;98881.09;4973740;28;130195;-71
2022/01/10 03:42:16;;;;;;;11.88;5.75;;;-3.10;22.40;;;-3.78;95.69;98883.78;4979031;28;129798;-71
2022/01/10 03:44:45;;;;;;;15.02;6.90;;;-3.10;22.20;;;-3.81;95.96;98893.00;4972276;28;119681;-72
2022/01/10 03:47:16;;;;;;;14.93;6.80;;;-3.10;22.80;;;-3.79;95.81;98898.88;4989706;28;118797;-72
2022/01/10 03:49:45;;;;;;;14.00;6.20;;;-3.10;22.60;;;-3.75;95.41;98894.72;4998062;28;129874;-72
2022/01/10 03:52:14;;;;;;;13.77;6.47;;;-3.00;21.70;;;-3.68;95.67;98900.69;4981876;28;130133;-72
2022/01/10 03:55:13;;;;;;;13.52;6.10;;;-3.00;22.10;;;-3.86;95.85;98904.31;4982143;28;120255;-72
2022/01/10 03:57:42;;;;;;;13.88;6.05;;;-3.00;21.20;;;-3.91;96.73;98900.72;4978040;28;118897;-72
2022/01/10 04:00:12;;;;;;;13.18;6.72;;;-3.00;21.70;;;-3.88;96.56;98905.56;4975285;28;130031;-72
2022/01/10 04:02:53;;;;;;;13.68;6.80;;;-3.00;21.80;;;-3.83;96.44;98908.34;4973840;28;130396;-72
2022/01/10 04:05:26;;;;;;;12.98;7.15;;;-3.00;21.90;;;-3.84;96.69;98912.81;4997832;28;119441;-72
2022/01/10 04:07:55;;;;;;;15.45;7.65;;;-3.00;22.30;;;-3.70;96.25;98910.75;4980793;28;118708;-72
2022/01/10 04:10:26;;;;;;;13.35;7.13;;;-3.00;23.20;;;-3.80;96.53;98923.78;5006210;28;129747;-72
2022/01/10 04:12:56;;;;;;;14.88;7.20;;;-3.00;23.50;;;-3.80;96.81;98926.44;4997630;28;129551;-72
2022/01/10 04:15:25;;;;;;;19.25;7.30;;;-3.00;23.80;;;-3.80;96.94;98929.09;4987249;28;121909;-72
2022/01/10 04:17:56;;;;;;;17.70;7.80;;;-3.00;23.40;;;-3.82;96.88;98920.53;4975935;28;121677;-72
2022/01/10 04:20:26;;;;;;;16.73;7.30;;;-3.00;23.20;;;-3.71;97.04;98933.00;4995405;28;130100;-72
2022/01/10 04:22:56;;;;;;;16.70;7.47;;;-3.00;24.20;;;-3.55;95.88;98935.97;5007286;28;129836;-72
2022/01/10 04:25:26;;;;;;;15.13;7.50;;;-2.90;23.80;;;-3.54;96.00;98933.09;5012136;28;119859;-72
2022/01/10 04:27:55;;;;;;;17.02;7.88;;;-2.90;23.40;;;-3.63;95.88;98940.59;5010357;28;119534;-72
2022/01/10 04:30:31;;;;;;;15.90;7.43;;;-2.90;23.60;;;-3.77;96.33;98949.84;4981006;28;130294;-72
2022/01/10 04:33:02;;;;;;;19.75;8.02;;;-2.90;23.40;;;-3.67;96.36;98949.25;4986505;28;129977;-71
2022/01/10 04:35:32;;;;;;;17.98;8.65;;;-2.90;23.70;;;-3.72;96.47;98944.66;4964040;28;118477;-72
2022/01/10 04:38:01;;;;;;;13.20;7.18;;;-2.90;23.10;;;-3.67;96.40;98950.06;4971199;28;119878;-72
2022/01/10 04:40:31;;;;;;;17.30;8.65;;;-2.90;23.20;;;-3.73;96.42;98966.09;4978508;28;130352;-72
2022/01/10 04:43:00;;;;;;;17.40;8.63;;;-2.90;23.50;;;-3.72;96.71;98960.56;4995466;28;128694;-72
2022/01/10 04:45:29;;;;;;;17.80;9.23;;;-2.90;22.90;;;-3.75;96.80;98974.28;4980830;28;119333;-72
2022/01/10 04:48:00;;;;;;;22.20;9.70;;;-2.90;22.00;;;-3.63;96.16;98976.91;4993209;28;119701;-73
2022/01/10 04:50:54;;;;;;;16.42;8.80;;;-2.90;22.70;;;-3.61;95.81;98983.63;4979859;28;130371;-72
2022/01/10 04:53:23;;;;;;;15.68;8.18;;;-2.90;23.20;;;-3.59;96.29;98987.88;4981309;28;128616;-72
2022/01/10 04:55:53;;;;;;;15.45;8.13;;;-2.90;23.70;;;-3.67;96.20;98997.78;4995579;28;119548;-73
2022/01/10 04:58:23;;;;;;;19.45;8.63;;;-2.90;22.40;;;-3.62;96.50;99000.56;4981939;28;119734;-73
2022/01/10 05:00:55;;;;;;;18.48;9.07;;;-2.90;23.20;;;-3.55;95.68;98999.63;4988932;28;129572;-73
2022/01/10 05:03:25;;;;;;;26.75;10.40;;;-2.90;22.50;;;-3.65;96.01;99002.88;4997120;28;129426;-72
2022/01/10 05:05:55;;;;;;;31.77;13.75;;;-2.90;21.80;;;-3.72;96.28;99016.25;4990670;28;121875;-72
2022/01/10 05:08:25;;;;;;;22.90;11.02;;;-2.90;20.90;;;-3.61;95.76;99012.78;4992809;28;121911;-72
2022/01/10 05:10:58;;;;;;;19.58;9.55;;;-2.90;20.50;;;-3.70;95.28;99016.81;4997836;28;129905;-72
2022/01/10 05:13:28;;;;;;;19.38;8.70;;;-2.90;19.00;;;-3.78;95.66;99027.78;4996301;28;129539;-72
2022/01/10 05:15:57;;;;;;;17.08;8.75;;;-2.90;18.20;;;-3.79;96.05;99020.84;4997684;28;118994;-72
2022/01/10 05:18:26;;;;;;;24.67;12.25;;;-2.90;19.40;;;-3.76;96.22;99020.41;4979254;28;118825;-73
2022/01/10 05:20:55;;;;;;;20.25;12.32;;;-2.90;19.30;;;-3.86;95.69;99031.56;4980853;28;129911;-72
2022/01/10 05:23:24;;;;;;;23.20;11.55;;;-2.90;17.90;;;-3.77;95.42;99034.72;4998152;28;130302;-72
2022/01/10 05:25:53;;;;;;;19.42;9.48;;;-2.90;17.70;;;-3.85;95.53;99024.41;4985018;28;118923;-73
2022/01/10 05:28:23;;;;;;;16.95;8.35;;;-2.90;17.50;;;-3.86;95.61;99030.78;5001747;28;120180;-73
2022/01/10 05:30:55;;;;;;;20.30;11.05;;;-2.90;16.50;;;-3.81;95.03;99036.19;5000602;28;130283;-73
2022/01/10 05:33:28;;;;;;;19.10;9.93;;;-2.90;15.80;;;-3.76;94.20;99036.31;4975134;28;129694;-73
2022/01/10 05:35:57;;;;;;;14.20;8.07;;;-2.90;14.40;;;-3.73;94.38;99041.16;5001305;28;119471;-72
2022/01/10 05:38:25;;;;;;;14.48;8.27;;;-2.90;14.40;;;-3.75;93.98;99048.53;4983535;28;119699;-73
2022/01/10 05:40:54;;;;;;;21.75;10.07;;;-2.80;14.80;;;-3.70;94.82;99061.91;5018039;28;129711;-73
2022/01/10 05:43:25;;;;;;;21.80;9.90;;;-3.00;16.10;;;-3.72;95.57;99063.19;4980414;28;129495;-72
2022/01/10 05:45:58;;;;;;;26.42;11.80;;;-2.90;18.10;;;-3.83;95.59;99062.13;4998122;28;119195;-72
2022/01/10 05:48:29;;;;;;;19.10;9.93;;;-2.90;17.30;;;-3.84;95.48;99063.16;4981901;28;118820;-72
2022/01/10 05:51:02;;;;;;;19.63;9.70;;;-2.90;16.10;;;-3.80;95.48;99061.69;4999771;28;130426;-72
2022/01/10 05:53:33;;;;;;;21.20;9.90;;;-2.90;16.70;;;-3.97;95.05;99070.28;4999995;28;129461;-71
2022/01/10 05:56:02;;;;;;;17.20;8.93;;;-2.90;15.60;;;-3.94;95.58;99082.28;4995314;28;121939;-72
2022/01/10 05:58:39;;;;;;;18.40;8.85;;;-2.90;15.40;;;-3.93;95.18;99072.47;5000108;28;120655;-72
2022/01/10 06:01:08;;;;;;;16.30;8.40;;;-3.00;14.20;;;-3.97;94.49;99083.53;4980429;28;130236;-72
2022/01/10 06:03:43;;;;;;;15.63;7.78;;;-3.00;11.80;;;-4.06;93.66;99087.53;4984136;28;129987;-72
2022/01/10 06:06:12;;;;;;;17.13;8.10;;;-3.00;10.60;;;-4.09;94.11;99095.94;4983993;28;119196;-72
2022/01/10 06:08:41;;;;;;;19.73;10.88;;;-3.20;12.10;;;-4.01;93.95;99097.47;4984117;28;119741;-72
2022/01/10 06:11:11;;;;;;;21.15;12.40;;;-3.10;13.00;;;-3.95;94.12;99095.75;4983286;28;129159;-73
2022/01/10 06:13:46;;;;;;;18.40;10.63;;;-3.00;14.10;;;-3.88;94.49;99107.06;4992901;28;129515;-72
2022/01/10 06:16:15;;;;;;;17.67;9.73;;;-3.00;15.00;;;-3.81;94.04;99113.09;5016725;28;119433;-72
2022/01/10 06:18:46;;;;;;;22.70;11.25;;;-3.00;15.70;;;-3.82;94.75;99119.41;4969702;28;118947;-72
2022/01/10 06:21:15;;;;;;;18.13;10.13;;;-3.00;16.20;;;-3.70;94.06;99122.91;4980654;28;130207;-72
2022/01/10 06:23:44;;;;;;;18.77;9.52;;;-3.00;14.30;;;-3.67;93.99;99141.03;4996951;28;130115;-72
2022/01/10 06:26:13;;;;;;;18.98;9.77;;;-2.90;14.50;;;-3.75;93.58;99151.97;4996668;28;118491;-72
2022/01/10 06:28:42;;;;;;;19.52;10.40;;;-3.00;14.80;;;-3.80;94.22;99149.19;5000276;28;119022;-72
2022/01/10 06:31:14;;;;;;;18.95;9.55;;;-2.90;15.60;;;-3.88;93.94;99165.41;4981594;28;130196;-72
2022/01/10 06:33:51;;;;;;;18.50;9.82;;;-3.00;15.30;;;-4.00;94.03;99163.50;4983164;28;129435;-72
2022/01/10 06:36:20;;;;;;;20.73;9.95;;;-3.10;14.10;;;-3.93;94.30;99173.22;4983092;28;118657;-72
2022/01/10 06:38:51;;;;;;;15.43;8.73;;;-3.10;14.30;;;-3.97;93.60;99178.97;4999436;28;119379;-72
2022/01/10 06:41:20;;;;;;;18.08;9.32;;;-3.20;12.90;;;-4.08;94.28;99177.09;4983215;28;129094;-70
2022/01/10 06:43:50;;;;;;;15.25;8.13;;;-3.20;14.10;;;-4.04;93.86;99188.03;4978061;28;130070;-73
2022/01/10 06:46:21;;;;;;;15.35;8.73;;;-3.20;13.30;;;-4.10;93.47;99195.03;4997604;28;121793;-72
2022/01/10 06:48:50;;;;;;;16.42;9.05;;;-3.30;13.40;;;-4.06;93.59;99206.03;4999525;28;121382;-72
2022/01/10 06:51:22;;;;;;;14.48;8.77;;;-3.20;13.80;;;-4.18;93.75;99208.59;4996785;28;129652;-72
2022/01/10 06:53:53;;;;;;;19.50;9.25;;;-3.30;11.90;;;-4.26;93.78;99206.25;4996266;28;129630;-72
2022/01/10 06:56:23;;;;;;;16.75;8.93;;;-3.30;12.00;;;-4.26;93.95;99206.25;4981401;28;119557;-72
2022/01/10 06:58:53;;;;;;;33.97;19.55;;;-3.30;12.40;;;-4.19;94.19;99218.41;4999733;28;119366;-72
2022/01/10 07:01:32;;;;;;;30.65;17.33;;;-3.30;12.00;;;-4.04;93.63;99222.50;4999375;28;129339;-72
2022/01/10 07:04:03;;;;;;;21.05;11.90;;;-3.20;12.60;;;-4.01;93.43;99212.25;4999757;28;129505;-73
2022/01/10 07:06:31;;;;;;;17.55;8.70;;;-3.20;14.10;;;-4.13;93.98;99221.97;4982927;28;119509;-74
2022/01/10 07:09:06;;;;;;;19.90;10.55;;;-3.30;16.70;;;-3.93;93.95;99223.59;4983771;28;119767;-78
2022/01/10 07:11:42;;;;;;;24.05;13.55;;;-3.30;16.30;;;-3.99;93.31;99223.47;4990168;28;130121;-75
2022/01/10 07:14:13;;;;;;;16.13;9.18;;;-3.30;15.80;;;-4.23;93.86;99227.00;4981986;28;129340;-81
2022/01/10 07:16:44;;;;;;;24.95;13.15;;;-3.40;13.90;;;-4.25;94.73;99226.44;5011620;28;119566;-80
2022/01/10 07:19:13;;;;;;;36.05;15.95;;;-3.40;15.40;;;-4.19;93.67;99234.31;5001386;28;119387;-82
2022/01/10 07:21:43;;;;;;;24.75;12.00;;;-3.40;14.30;;;-4.11;93.88;99238.50;4991093;28;129635;-79
2022/01/10 07:24:13;;;;;;;27.70;15.35;;;-3.40;14.80;;;-4.11;93.35;99243.78;4981773;28;129074;-80
2022/01/10 07:26:42;;;;;;;33.38;18.77;;;-3.40;14.00;;;-4.42;93.40;99256.16;4984727;28;119196;-78
2022/01/10 07:29:12;;;;;;;22.15;9.52;;;-3.50;13.20;;;-4.56;94.00;99249.38;4981178;28;119762;-72
2022/01/10 07:31:43;;;;;;;17.13;8.38;;;-3.60;13.50;;;-4.61;94.05;99262.44;4980252;28;129658;-73
2022/01/10 07:34:15;;;;;;;17.92;9.27;;;-3.70;13.70;;;-4.59;94.09;99249.81;4981023;28;130092;-71
2022/01/10 07:36:45;;;;;;;18.10;12.15;;;-3.70;13.80;;;-4.50;93.99;99264.38;4974177;28;122421;-73
2022/01/10 07:39:14;;;;;;;21.40;13.68;;;-3.70;14.40;;;-4.37;94.18;99258.94;4979774;28;121761;-72
2022/01/10 07:41:42;;;;;;;21.23;12.60;;;-3.70;15.40;;;-4.26;93.93;99259.25;4981494;28;129470;-71
2022/01/10 07:44:16;;;;;;;22.52;10.18;;;-3.70;16.20;;;-4.30;93.72;99258.06;4993578;28;129690;-71
2022/01/10 07:46:45;;;;;;;24.42;11.88;;;-3.70;16.30;;;-4.55;94.40;99258.91;4980018;28;120185;-71
2022/01/10 07:49:15;;;;;;;23.00;10.82;;;-3.70;16.40;;;-4.43;93.94;99259.81;4979890;28;120023;-71
2022/01/10 07:51:43;;;;;;;35.83;18.55;;;-3.80;16.80;;;-4.28;93.40;99266.63;4971800;28;130810;-72
2022/01/10 07:54:12;;;;;;;33.25;15.82;;;-3.70;16.80;;;-4.49;93.45;99265.97;4978909;28;130535;-71
2022/01/10 07:56:40;;;;;;;40.80;18.15;;;-3.80;16.40;;;-4.37;93.82;99264.22;4981179;28;119482;-71
2022/01/10 07:59:09;;;;;;;83.05;31.95;;;-3.80;16.80;;;-4.37;93.30;99274.03;4978946;28;119384;-72
2022/01/10 08:01:38;;;;;;;153.68;54.70;;;-3.80;16.00;;;-4.44;93.73;99278.56;4976877;28;131176;-72
2022/01/10 08:04:07;;;;;;;43.13;18.45;;;-3.80;16.00;;;-4.21;92.45;99285.88;4979948;28;130161;-71
2022/01/10 08:06:38;;;;;;;51.72;21.90;;;-3.80;16.20;;;-4.10;92.38;99290.47;4996882;28;119305;-72
2022/01/10 08:09:07;;;;;;;35.10;16.15;;;-3.70;15.80;;;-4.20;91.87;99293.63;4978757;28;119913;-72
2022/01/10 08:11:36;;;;;;;39.70;16.52;;;-3.70;15.70;;;-4.18;92.46;99298.69;4979764;28;129723;-72
2022/01/10 08:14:05;;;;;;;62.67;25.00;;;-3.70;15.40;;;-4.11;92.26;99296.81;4981560;28;130075;-72
2022/01/10 08:16:34;;;;;;;28.55;14.70;;;-3.60;14.50;;;-3.93;91.25;99300.50;4996224;28;119384;-71
2022/01/10 08:19:03;;;;;;;40.72;18.08;;;-3.60;13.90;;;-4.07;91.47;99300.63;4981491;28;120248;-72
2022/01/10 08:21:31;;;;;;;29.30;14.25;;;-3.50;11.90;;;-3.90;90.03;99305.34;4980570;28;130433;-71
2022/01/10 08:24:02;;;;;;;64.18;25.20;;;-3.40;9.10;;;-3.77;90.01;99305.22;4979144;28;130477;-72
2022/01/10 08:26:30;;;;;;;57.08;20.85;;;-3.40;10.60;;;-3.67;89.32;99300.16;4994976;28;122144;-72
2022/01/10 08:28:59;;;;;;;23.95;11.85;;;-3.30;9.80;;;-3.28;88.20;99311.31;4978911;28;122518;-72
2022/01/10 08:31:27;;;;;;;20.92;10.07;;;-3.20;9.20;;;-3.57;89.01;99306.78;4978544;28;129230;-73
2022/01/10 08:33:56;;;;;;;17.20;8.68;;;-3.30;8.60;;;-3.80;89.55;99316.25;4981233;28;129719;-73
2022/01/10 08:36:27;;;;;;;16.05;9.35;;;-3.30;9.40;;;-3.80;90.19;99316.25;4978203;28;119982;-73
2022/01/10 08:38:56;;;;;;;21.08;10.57;;;-3.30;10.40;;;-3.54;90.05;99319.63;4980393;28;118311;-73
2022/01/10 08:41:26;;;;;;;22.42;10.38;;;-3.20;11.00;;;-3.73;89.01;99311.66;4978957;28;130151;-73
2022/01/10 08:43:55;;;;;;;19.90;10.05;;;-3.30;8.60;;;-3.64;89.59;99318.28;4978775;28;129852;-73
2022/01/10 08:46:23;;;;;;;15.90;8.75;;;-3.30;9.50;;;-3.54;89.59;99314.31;4980432;28;119438;-72
2022/01/10 08:48:53;;;;;;;15.20;8.23;;;-3.30;9.40;;;-3.77;88.63;99326.44;4979511;28;119487;-73
2022/01/10 08:51:21;;;;;;;14.23;8.02;;;-3.30;7.40;;;-3.88;89.42;99327.13;4978410;28;129019;-73
2022/01/10 08:53:50;;;;;;;15.50;8.98;;;-3.40;8.60;;;-3.81;89.85;99326.03;4974332;28;130189;-73
2022/01/10 08:56:19;;;;;;;14.85;8.55;;;-3.30;8.80;;;-3.45;87.94;99335.00;4983324;28;120148;-72
2022/01/10 08:58:49;;;;;;;16.02;8.55;;;-3.20;5.80;;;-3.71;88.35;99336.16;4982101;28;120059;-73
2022/01/10 09:01:19;;;;;;;19.55;10.05;;;-3.30;6.10;;;-3.54;88.32;99340.84;4983068;28;128864;-73
2022/01/10 09:03:47;;;;;;;15.43;9.15;;;-3.20;5.80;;;-3.53;87.74;99347.78;4980359;28;129236;-73
2022/01/10 09:06:16;;;;;;;15.45;8.32;;;-3.20;4.20;;;-3.62;87.96;99349.91;4977963;28;119592;-73
2022/01/10 09:08:47;;;;;;;18.40;9.48;;;-3.20;4.10;;;-3.53;87.82;99355.72;4975726;28;119145;-73
2022/01/10 09:11:16;;;;;;;16.55;9.50;;;-3.10;5.70;;;-3.49;87.75;99343.63;4983378;28;129956;-72
2022/01/10 09:13:45;;;;;;;15.77;8.10;;;-3.10;4.10;;;-3.38;86.51;99350.84;4974978;28;129663;-72
2022/01/10 09:16:16;;;;;;;15.88;8.70;;;-3.10;2.80;;;-3.28;86.51;99355.63;4981341;28;121955;-72
2022/01/10 09:18:45;;;;;;;16.33;9.23;;;-3.00;3.30;;;-3.28;86.72;99351.13;4981410;28;121527;-73
2022/01/10 09:21:13;;;;;;;18.77;9.30;;;-3.00;3.50;;;-3.33;86.94;99348.31;4980686;28;129961;-72
2022/01/10 09:23:41;;;;;;;15.00;8.18;;;-3.00;4.10;;;-3.11;86.58;99347.84;4983632;28;129707;-74
2022/01/10 09:26:10;;;;;;;16.48;8.77;;;-2.90;4.70;;;-3.07;86.63;99346.34;5009794;28;118717;-73
2022/01/10 09:28:38;;;;;;;14.13;8.80;;;-3.00;5.70;;;-3.08;86.79;99355.34;4981954;28;120369;-72
2022/01/10 09:31:08;;;;;;;14.85;8.20;;;-3.00;5.20;;;-3.50;87.35;99363.25;4981239;28;130466;-72
2022/01/10 09:33:38;;;;;;;16.15;8.48;;;-3.10;5.80;;;-3.41;87.33;99361.91;4981115;28;130197;-73
2022/01/10 09:36:07;;;;;;;16.23;8.57;;;-3.00;5.20;;;-3.40;88.39;99368.81;4981624;28;119487;-73
2022/01/10 09:38:37;;;;;;;16.55;10.38;;;-3.00;6.40;;;-3.47;88.53;99368.91;4999405;28;118594;-72
2022/01/10 09:41:06;;;;;;;17.65;9.77;;;-3.00;6.40;;;-3.38;88.19;99376.56;4979942;28;130074;-72
2022/01/10 09:43:35;;;;;;;16.02;9.90;;;-2.90;4.70;;;-3.03;87.51;99370.63;4980977;28;128797;-72
2022/01/10 09:46:04;;;;;;;15.10;8.80;;;-2.80;5.10;;;-3.09;87.22;99375.78;4983450;28;119869;-72
2022/01/10 09:48:32;;;;;;;15.02;9.43;;;-2.80;4.90;;;-3.33;88.10;99374.88;4982459;28;119540;-72
2022/01/10 09:51:03;;;;;;;19.98;10.63;;;-2.90;6.30;;;-3.13;87.40;99369.31;4983853;28;130383;-73
2022/01/10 09:53:33;;;;;;;14.60;8.93;;;-2.80;5.10;;;-3.31;88.06;99372.78;4984567;28;103150;-72
2022/01/10 09:56:02;;;;;;;18.33;9.45;;;-2.90;5.60;;;-3.52;88.92;99381.22;4979910;28;119887;-73
2022/01/10 09:58:30;;;;;;;17.25;8.98;;;-3.00;6.50;;;-3.13;87.94;99384.41;4980781;28;119442;-73
2022/01/10 10:01:01;;;;;;;16.55;9.18;;;-2.80;6.60;;;-2.78;87.25;99389.06;4982491;28;129059;-72
2022/01/10 10:03:30;;;;;;;18.25;8.82;;;-2.70;6.50;;;-2.55;85.13;99391.78;4980376;28;129716;-73
2022/01/10 10:06:01;;;;;;;18.42;10.32;;;-2.60;3.90;;;-2.57;84.98;99388.53;4994973;28;121182;-73
2022/01/10 10:08:29;;;;;;;16.25;9.13;;;-2.60;4.20;;;-2.16;84.38;99388.72;4980689;28;121895;-73
2022/01/10 10:11:00;;;;;;;16.92;8.82;;;-2.40;3.60;;;-2.32;83.88;99392.88;4981348;28;130504;-72
2022/01/10 10:13:28;;;;;;;15.98;9.13;;;-2.40;2.50;;;-2.61;85.05;99392.69;4981910;28;129763;-73
2022/01/10 10:16:00;;;;;;;14.85;8.88;;;-2.50;2.30;;;-2.72;85.81;99385.50;4983608;28;119659;-73
2022/01/10 10:18:31;;;;;;;16.20;9.73;;;-2.50;2.90;;;-2.54;85.09;99393.41;4998637;28;119244;-73
2022/01/10 10:21:02;;;;;;;17.00;8.82;;;-2.40;2.20;;;-2.68;85.31;99394.66;4980500;28;129680;-73
2022/01/10 10:23:32;;;;;;;16.50;8.23;;;-2.40;1.80;;;-2.69;85.29;99394.88;4998321;28;128838;-72